Darstellungsparameter: Aktuell verwendete Einstellungen:
Skalierung der Graphiken ... ?
xyx+y,   Skalierungsfaktor:      Skalierung: Modus: x, Faktor: 1
Darstellungszeitraum ... ?
Vom - - bis: - -   Zeitraum: 07.01.2011 - 13.01.2011
Min/Max/Avg-Anzeige ... ?
Zeige MMA aktuell
Zeige MMA Monat
Zeige MMA alles
Zeige --A aktuell
Zeige --A Monat
Zeige --A alles
Keine MMA-Anzeige
MMA:
Keine MMA-Graphiken
MMA-Basis: 07.01.2011 - 13.01.2011
Quicknavigation für Darstellung... ?
Tage:      1T, 2T, 3T, 5T -1T -2T -3T -5T +1T +2T +3T +5T
Wochen: 1W, 2W, 3W -1W -2W -3W +1W +2W +3W
Monate: 1M, 3M, 6M -1M -3M -6M +1M +3M +6M
Jahre:    1J, 3J, 5J, 10J -1J -3J -5J -10J +1J +3J +5J +10J
Nutze für die Darstellung ... ?
Originaldaten oder Mittelwerte auf ...
Stundenbasis Tagesbasis Wochenbasis
Monatsbasis Jahresbasis      Datenbasis: Original-Daten
Darstellen als:
Statistik (Auto) Statistik J:M      Darstellung:
Zur Graphik,    zurück zur Übersicht aller Sensoren.
 
Tabellarische Datenbersicht: ?
 
Sensor: Nr:Datum:Temp:Abs-Feuchte:Windchill:Wind:
Aussen-T/F 1 07-01-2011 00:09:04 8.5 C 6.83 g/m*3 8.5 C 0 km/h
2 07-01-2011 00:21:04 7.6 C 6.61 g/m*3 7.6 C 0 km/h
3 07-01-2011 00:33:04 7 C 6.51 g/m*3 7 C 0 km/h
4 07-01-2011 00:45:04 7.3 C 6.79 g/m*3 7.3 C 0 km/h
5 07-01-2011 00:57:04 6.5 C 6.45 g/m*3 6.5 C 0 km/h
6 07-01-2011 01:09:04 6.4 C 6.48 g/m*3 6.4 C 0 km/h
7 07-01-2011 01:21:04 6.5 C 6.52 g/m*3 6.5 C 0 km/h
8 07-01-2011 01:33:04 6.8 C 6.73 g/m*3 6.8 C 0 km/h
9 07-01-2011 01:45:05 6.9 C 6.85 g/m*3 6.9 C 0 km/h
10 07-01-2011 01:57:05 6.6 C 6.72 g/m*3 6.6 C 0 km/h
11 07-01-2011 02:09:05 6 C 6.46 g/m*3 6 C 0 km/h
12 07-01-2011 02:21:05 5.8 C 6.45 g/m*3 5.8 C 0 km/h
13 07-01-2011 02:33:05 5.7 C 6.4 g/m*3 5.7 C 0 km/h
14 07-01-2011 02:45:05 5.8 C 6.45 g/m*3 5.8 C 0 km/h
15 07-01-2011 02:57:05 5.8 C 6.52 g/m*3 5.8 C 0 km/h
16 07-01-2011 03:09:05 5.7 C 6.48 g/m*3 5.7 C 0 km/h
17 07-01-2011 03:21:05 5.6 C 6.43 g/m*3 5.6 C 0 km/h
18 07-01-2011 03:33:05 5.6 C 6.43 g/m*3 5.6 C 0 km/h
19 07-01-2011 03:45:05 5.6 C 6.43 g/m*3 5.6 C 0 km/h
20 07-01-2011 03:57:05 5.6 C 6.43 g/m*3 5.6 C 0 km/h
21 07-01-2011 04:09:05 5.6 C 6.43 g/m*3 5.6 C 0 km/h
22 07-01-2011 04:21:05 5.5 C 6.39 g/m*3 5.5 C 0 km/h
23 07-01-2011 04:33:05 5.2 C 6.27 g/m*3 5.2 C 0 km/h
24 07-01-2011 04:45:05 5.2 C 6.27 g/m*3 5.2 C 0 km/h
25 07-01-2011 04:57:05 5.3 C 6.31 g/m*3 5.3 C 0 km/h
Sensor: Nr:Datum:Temp:Abs-Feuchte:Windchill:Wind:
Aussen-T/F 26 07-01-2011 05:09:05 5.6 C 6.5 g/m*3 5.6 C 0 km/h
27 07-01-2011 05:21:05 5.2 C 6.27 g/m*3 5.2 C 0 km/h
28 07-01-2011 05:33:05 5.3 C 6.38 g/m*3 5.3 C 0 km/h
29 07-01-2011 05:45:05 5.2 C 6.33 g/m*3 5.2 C 0 km/h
30 07-01-2011 05:57:06 5.1 C 6.22 g/m*3 5.1 C 0 km/h
31 07-01-2011 06:09:06 4.8 C 6.17 g/m*3 4.8 C 0 km/h
32 07-01-2011 06:21:06 4.9 C 6.21 g/m*3 4.9 C 0 km/h
33 07-01-2011 06:33:06 5 C 6.18 g/m*3 5 C 0 km/h
34 07-01-2011 06:45:06 5 C 6.18 g/m*3 5 C 0 km/h
35 07-01-2011 06:57:06 4.8 C 6.17 g/m*3 4.8 C 0 km/h
36 07-01-2011 07:09:06 5 C 6.25 g/m*3 5 C 0 km/h
37 07-01-2011 07:21:06 5 C 6.25 g/m*3 5 C 0 km/h
38 07-01-2011 07:33:06 5 C 6.25 g/m*3 5 C 0 km/h
39 07-01-2011 07:45:03 5.1 C 6.29 g/m*3 5.1 C 0 km/h
40 07-01-2011 07:57:03 5.1 C 6.29 g/m*3 5.1 C 0 km/h
41 07-01-2011 08:09:02 4.8 C 6.17 g/m*3 4.8 C 0 km/h
42 07-01-2011 08:21:03 4.9 C 6.21 g/m*3 4.9 C 0 km/h
43 07-01-2011 08:33:02 5 C 6.25 g/m*3 5 C 0 km/h
44 07-01-2011 08:45:03 4.9 C 6.21 g/m*3 4.9 C 0 km/h
45 07-01-2011 08:57:03 4.8 C 6.17 g/m*3 4.8 C 0 km/h
46 07-01-2011 09:09:02 4.7 C 6.13 g/m*3 4.7 C 0 km/h
47 07-01-2011 09:21:02 4.7 C 6.13 g/m*3 4.7 C 0 km/h
48 07-01-2011 09:33:02 4.9 C 6.21 g/m*3 4.9 C 0 km/h
49 07-01-2011 09:45:02 5 C 6.25 g/m*3 5 C 0 km/h
50 07-01-2011 09:57:02 5.2 C 6.33 g/m*3 5.2 C 0 km/h
Sensor: Nr:Datum:Temp:Abs-Feuchte:Windchill:Wind:
Aussen-T/F 51 07-01-2011 10:09:02 5.3 C 6.38 g/m*3 5.3 C 0 km/h
52 07-01-2011 10:21:03 5.3 C 6.38 g/m*3 5.3 C 0 km/h
53 07-01-2011 10:33:02 5.6 C 6.5 g/m*3 5.6 C 0 km/h
54 07-01-2011 10:45:03 5.6 C 6.43 g/m*3 5.6 C 0 km/h
55 07-01-2011 10:57:03 5.7 C 6.48 g/m*3 5.7 C 0 km/h
56 07-01-2011 11:09:02 6 C 6.6 g/m*3 6 C 0 km/h
57 07-01-2011 11:21:02 6.7 C 6.91 g/m*3 6.7 C 0 km/h
58 07-01-2011 11:33:02 7.1 C 7.1 g/m*3 7.1 C 0 km/h
59 07-01-2011 11:45:02 7 C 7.05 g/m*3 7 C 0 km/h
60 07-01-2011 11:57:02 7 C 7.05 g/m*3 7 C 0 km/h
61 07-01-2011 12:09:02 7.2 C 7.14 g/m*3 7.2 C 0 km/h
62 07-01-2011 12:21:02 7.2 C 7.06 g/m*3 7.2 C 0 km/h
63 07-01-2011 12:33:02 7.3 C 7.11 g/m*3 7.3 C 0 km/h
64 07-01-2011 12:45:02 7.3 C 7.11 g/m*3 7.3 C 0 km/h
65 07-01-2011 12:57:02 7.4 C 7.16 g/m*3 7.4 C 0 km/h
66 07-01-2011 13:09:01 7.5 C 7.2 g/m*3 7.5 C 0 km/h
67 07-01-2011 13:21:01 7.4 C 7.16 g/m*3 7.4 C 0 km/h
68 07-01-2011 13:33:02 7.3 C 7.11 g/m*3 7.3 C 0 km/h
69 07-01-2011 13:45:02 7.4 C 7.08 g/m*3 7.4 C 0 km/h
70 07-01-2011 13:57:02 7.3 C 7.03 g/m*3 7.3 C 0 km/h
71 07-01-2011 14:09:02 7.4 C 7.08 g/m*3 7.4 C 0 km/h
72 07-01-2011 14:21:02 7.5 C 7.12 g/m*3 7.5 C 0 km/h
73 07-01-2011 14:33:02 7.5 C 7.2 g/m*3 7.5 C 0 km/h
74 07-01-2011 14:45:02 7.4 C 7.16 g/m*3 7.4 C 0 km/h
75 07-01-2011 14:57:02 7.3 C 7.11 g/m*3 7.3 C 0 km/h
Sensor: Nr:Datum:Temp:Abs-Feuchte:Windchill:Wind:
Aussen-T/F 76 07-01-2011 15:09:02 7.3 C 7.11 g/m*3 7.3 C 0 km/h
77 07-01-2011 15:21:02 7.3 C 7.11 g/m*3 7.3 C 0 km/h
78 07-01-2011 15:33:02 7.1 C 7.02 g/m*3 7.1 C 0 km/h
79 07-01-2011 15:45:02 7.1 C 7.02 g/m*3 7.1 C 0 km/h
80 07-01-2011 15:57:02 7.1 C 7.02 g/m*3 7.1 C 0 km/h
81 07-01-2011 16:09:02 6.9 C 7.01 g/m*3 6.9 C 0 km/h
82 07-01-2011 16:21:02 7.2 C 7.06 g/m*3 7.2 C 0 km/h
83 07-01-2011 16:33:03 7.1 C 7.02 g/m*3 7.1 C 0 km/h
84 07-01-2011 16:45:02 7 C 6.97 g/m*3 7 C 0 km/h
85 07-01-2011 16:57:02 7.1 C 7.02 g/m*3 7.1 C 0 km/h
86 07-01-2011 17:09:03 7.3 C 7.19 g/m*3 7.3 C 0 km/h
87 07-01-2011 17:21:02 7.3 C 7.19 g/m*3 7.3 C 0 km/h
88 07-01-2011 17:33:02 7.5 C 7.28 g/m*3 7.5 C 0 km/h
89 07-01-2011 17:45:01 7.7 C 7.38 g/m*3 7.7 C 0 km/h
90 07-01-2011 17:57:01 7.8 C 7.43 g/m*3 7.8 C 0 km/h
91 07-01-2011 18:09:02 8.3 C 7.67 g/m*3 8.3 C 0 km/h
92 07-01-2011 18:21:01 9.3 C 8.09 g/m*3 9.3 C 0 km/h
93 07-01-2011 18:33:01 9.3 C 8.09 g/m*3 9.3 C 0 km/h
94 07-01-2011 18:45:01 10 C 8.36 g/m*3 10 C 0 km/h
95 07-01-2011 18:57:01 9.7 C 8.2 g/m*3 9.7 C 0 km/h
96 07-01-2011 19:09:01 10.3 C 8.33 g/m*3 10.3 C 0 km/h
97 07-01-2011 19:21:02 9.8 C 7.98 g/m*3 9.8 C 0 km/h
98 07-01-2011 19:33:01 9.6 C 7.88 g/m*3 9.6 C 0 km/h
99 07-01-2011 19:45:03 8.9 C 7.53 g/m*3 8.9 C 0 km/h
100 07-01-2011 19:57:03 8.6 C 7.48 g/m*3 8.6 C 0 km/h
Sensor: Nr:Datum:Temp:Abs-Feuchte:Windchill:Wind:
Aussen-T/F 101 07-01-2011 20:09:03 8.5 C 7.51 g/m*3 8.5 C 0 km/h
102 07-01-2011 20:21:02 8.9 C 7.8 g/m*3 8.9 C 0 km/h
103 07-01-2011 20:33:03 9.2 C 7.95 g/m*3 9.2 C 0 km/h
104 07-01-2011 20:45:02 9 C 7.85 g/m*3 9 C 0 km/h
105 07-01-2011 20:57:03 8.9 C 7.8 g/m*3 8.9 C 0 km/h
106 07-01-2011 21:09:01 8.9 C 7.8 g/m*3 8.9 C 0 km/h
107 07-01-2011 21:21:02 8.9 C 7.88 g/m*3 8.9 C 0 km/h
108 07-01-2011 21:33:02 9 C 7.85 g/m*3 9 C 0 km/h
109 07-01-2011 21:45:02 9.1 C 7.9 g/m*3 9.1 C 0 km/h
110 07-01-2011 21:57:02 9.1 C 7.9 g/m*3 9.1 C 0 km/h
111 07-01-2011 22:09:02 9 C 7.76 g/m*3 9 C 0 km/h
112 07-01-2011 22:22:03 8.8 C 7.75 g/m*3 8.8 C 0 km/h
113 07-01-2011 22:34:03 8.6 C 7.65 g/m*3 8.6 C 0 km/h
114 07-01-2011 22:46:03 8.5 C 7.51 g/m*3 8.5 C 0 km/h
115 07-01-2011 22:58:03 8.6 C 7.65 g/m*3 8.6 C 0 km/h
116 07-01-2011 23:10:03 8.6 C 7.65 g/m*3 8.6 C 0 km/h
117 07-01-2011 23:22:03 8.5 C 7.6 g/m*3 8.5 C 0 km/h
118 07-01-2011 23:34:03 8.8 C 7.75 g/m*3 8.8 C 0 km/h
119 07-01-2011 23:46:03 8.9 C 7.8 g/m*3 8.9 C 0 km/h
120 07-01-2011 23:58:03 9 C 7.76 g/m*3 9 C 0 km/h
121 08-01-2011 00:10:03 9.2 C 7.77 g/m*3 9.2 C 0 km/h
122 08-01-2011 00:22:03 8.9 C 7.62 g/m*3 8.9 C 0 km/h
123 08-01-2011 00:34:03 8.7 C 7.52 g/m*3 8.7 C 0 km/h
124 08-01-2011 00:46:03 8.3 C 7.33 g/m*3 8.3 C 0 km/h
125 08-01-2011 00:58:03 8.1 C 7.24 g/m*3 8.1 C 0 km/h
Sensor: Nr:Datum:Temp:Abs-Feuchte:Windchill:Wind:
Aussen-T/F 126 08-01-2011 01:10:03 8 C 7.28 g/m*3 8 C 0 km/h
127 08-01-2011 01:22:03 7.7 C 7.22 g/m*3 7.7 C 0 km/h
128 08-01-2011 01:34:03 7.5 C 7.12 g/m*3 7.5 C 0 km/h
129 08-01-2011 01:46:03 7.1 C 6.94 g/m*3 7.1 C 0 km/h
130 08-01-2011 01:58:04 7 C 6.9 g/m*3 7 C 0 km/h
131 08-01-2011 02:10:04 6.9 C 6.93 g/m*3 6.9 C 0 km/h
132 08-01-2011 02:22:04 6.6 C 6.79 g/m*3 6.6 C 0 km/h
133 08-01-2011 02:34:04 6.7 C 6.91 g/m*3 6.7 C 0 km/h
134 08-01-2011 02:46:04 6.6 C 6.87 g/m*3 6.6 C 0 km/h
135 08-01-2011 02:58:04 6.8 C 6.96 g/m*3 6.8 C 0 km/h
136 08-01-2011 03:10:04 7 C 7.05 g/m*3 7 C 0 km/h
137 08-01-2011 03:22:04 7.9 C 7.56 g/m*3 7.9 C 0 km/h
138 08-01-2011 03:34:04 8.1 C 7.57 g/m*3 8.1 C 0 km/h
139 08-01-2011 03:46:04 8.5 C 7.77 g/m*3 8.5 C 0 km/h
140 08-01-2011 03:58:04 8.1 C 7.57 g/m*3 8.1 C 0 km/h
141 08-01-2011 04:10:04 7.9 C 7.56 g/m*3 7.9 C 0 km/h
142 08-01-2011 04:22:04 8.2 C 7.62 g/m*3 8.2 C 0 km/h
143 08-01-2011 04:34:04 8.1 C 7.57 g/m*3 8.1 C 0 km/h
144 08-01-2011 04:46:04 7.9 C 7.56 g/m*3 7.9 C 0 km/h
145 08-01-2011 04:58:04 7.3 C 7.27 g/m*3 7.3 C 0 km/h
146 08-01-2011 05:10:04 7.5 C 7.36 g/m*3 7.5 C 0 km/h
147 08-01-2011 05:22:04 8 C 7.52 g/m*3 8 C 0 km/h
148 08-01-2011 05:34:04 7.9 C 7.56 g/m*3 7.9 C 0 km/h
149 08-01-2011 05:46:04 8.1 C 7.66 g/m*3 8.1 C 0 km/h
150 08-01-2011 05:58:05 8.2 C 7.7 g/m*3 8.2 C 0 km/h
Sensor: Nr:Datum:Temp:Abs-Feuchte:Windchill:Wind:
Aussen-T/F 151 08-01-2011 06:10:05 8.2 C 7.7 g/m*3 8.2 C 0 km/h
152 08-01-2011 06:22:05 8.2 C 7.7 g/m*3 8.2 C 0 km/h
153 08-01-2011 06:34:05 8 C 7.61 g/m*3 8 C 0 km/h
154 08-01-2011 06:46:05 7.8 C 7.59 g/m*3 7.8 C 0 km/h
155 08-01-2011 06:58:05 7.7 C 7.54 g/m*3 7.7 C 0 km/h
156 08-01-2011 07:10:05 8 C 7.61 g/m*3 8 C 0 km/h
157 08-01-2011 07:22:05 8 C 7.61 g/m*3 8 C 0 km/h
158 08-01-2011 07:34:05 7.9 C 7.64 g/m*3 7.9 C 0 km/h
159 08-01-2011 07:46:05 8.3 C 7.75 g/m*3 8.3 C 0 km/h
160 08-01-2011 07:58:05 8.6 C 7.91 g/m*3 8.6 C 0 km/h
161 08-01-2011 08:10:05 8.5 C 7.85 g/m*3 8.5 C 0 km/h
162 08-01-2011 08:22:05 8.2 C 7.7 g/m*3 8.2 C 0 km/h
163 08-01-2011 08:34:05 7.9 C 7.64 g/m*3 7.9 C 0 km/h
164 08-01-2011 08:46:02 8.3 C 7.75 g/m*3 8.3 C 0 km/h
165 08-01-2011 08:58:02 8.8 C 8.09 g/m*3 8.8 C 0 km/h
166 08-01-2011 09:10:02 8.9 C 8.06 g/m*3 8.9 C 0 km/h
167 08-01-2011 09:22:02 9.1 C 8.07 g/m*3 9.1 C 0 km/h
168 08-01-2011 09:34:02 8.7 C 7.96 g/m*3 8.7 C 0 km/h
169 08-01-2011 09:46:02 8.5 C 7.85 g/m*3 8.5 C 0 km/h
170 08-01-2011 09:58:02 8.3 C 7.75 g/m*3 8.3 C 0 km/h
171 08-01-2011 10:10:01 8 C 7.61 g/m*3 8 C 0 km/h
172 08-01-2011 10:22:02 7.7 C 7.46 g/m*3 7.7 C 0 km/h
173 08-01-2011 10:34:01 7.6 C 7.41 g/m*3 7.6 C 0 km/h
174 08-01-2011 10:46:02 7.6 C 7.41 g/m*3 7.6 C 0 km/h
175 08-01-2011 10:58:03 8 C 7.52 g/m*3 8 C 0 km/h
Sensor: Nr:Datum:Temp:Abs-Feuchte:Windchill:Wind:
Aussen-T/F 176 08-01-2011 11:10:02 8.6 C 7.82 g/m*3 8.6 C 0 km/h
177 08-01-2011 11:22:02 9.3 C 8.09 g/m*3 9.3 C 0 km/h
178 08-01-2011 11:34:03 10.2 C 8.09 g/m*3 10.2 C 0 km/h
179 08-01-2011 11:46:02 10.9 C 7.96 g/m*3 10.9 C 0 km/h
180 08-01-2011 11:58:02 12 C 7.25 g/m*3 12 C 0 km/h
181 08-01-2011 12:10:02 12.1 C 6.97 g/m*3 12.1 C 0 km/h
182 08-01-2011 12:22:01 12.7 C 6.57 g/m*3 12.7 C 0 km/h
183 08-01-2011 12:34:02 13.1 C 6.39 g/m*3 13.1 C 0 km/h
184 08-01-2011 12:46:02 13.8 C 6.55 g/m*3 13.8 C 0 km/h
185 08-01-2011 12:58:02 13.8 C 6.43 g/m*3 13.8 C 0 km/h
186 08-01-2011 13:10:02 13.9 C 6.35 g/m*3 13.9 C 0 km/h
187 08-01-2011 13:22:01 14 C 6.27 g/m*3 14 C 0 km/h
188 08-01-2011 13:34:02 14.1 C 5.95 g/m*3 14.1 C 0 km/h
189 08-01-2011 13:46:02 14.4 C 5.93 g/m*3 14.4 C 0 km/h
190 08-01-2011 13:58:02 14.5 C 5.85 g/m*3 14.5 C 0 km/h
191 08-01-2011 14:10:02 14.5 C 5.85 g/m*3 14.5 C 0 km/h
192 08-01-2011 14:22:02 14.7 C 5.79 g/m*3 14.7 C 0 km/h
193 08-01-2011 14:34:02 14.5 C 5.85 g/m*3 14.5 C 0 km/h
194 08-01-2011 14:46:02 14.3 C 5.9 g/m*3 14.3 C 0 km/h
195 08-01-2011 14:58:02 14 C 5.91 g/m*3 14 C 0 km/h
196 08-01-2011 15:10:02 14.3 C 5.9 g/m*3 14.3 C 0 km/h
197 08-01-2011 15:22:02 14 C 6.03 g/m*3 14 C 0 km/h
198 08-01-2011 15:34:01 14 C 5.79 g/m*3 14 C 0 km/h
199 08-01-2011 15:46:02 14.2 C 5.74 g/m*3 14.2 C 0 km/h
200 08-01-2011 15:58:02 14.1 C 5.83 g/m*3 14.1 C 0 km/h
Sensor: Nr:Datum:Temp:Abs-Feuchte:Windchill:Wind:
Aussen-T/F 201 08-01-2011 16:10:01 14 C 5.79 g/m*3 14 C 0 km/h
202 08-01-2011 16:22:02 13.8 C 5.96 g/m*3 13.8 C 0 km/h
203 08-01-2011 16:34:02 12.8 C 6.05 g/m*3 12.8 C 0 km/h
204 08-01-2011 16:46:02 13.7 C 5.8 g/m*3 13.7 C 0 km/h
205 08-01-2011 16:58:02 13.7 C 5.68 g/m*3 13.7 C 0 km/h
206 08-01-2011 17:10:02 13.2 C 5.86 g/m*3 13.2 C 0 km/h
207 08-01-2011 17:22:02 13.4 C 5.93 g/m*3 13.4 C 0 km/h
208 08-01-2011 17:34:02 13.3 C 6.01 g/m*3 13.3 C 0 km/h
209 08-01-2011 17:46:01 13.5 C 5.85 g/m*3 13.5 C 0 km/h
210 08-01-2011 17:58:01 13 C 5.9 g/m*3 13 C 0 km/h
211 08-01-2011 18:10:02 13.5 C 5.97 g/m*3 13.5 C 0 km/h
212 08-01-2011 18:22:01 13.2 C 5.86 g/m*3 13.2 C 0 km/h
213 08-01-2011 18:34:01 13.7 C 5.8 g/m*3 13.7 C 0 km/h
214 08-01-2011 18:46:01 13.5 C 5.85 g/m*3 13.5 C 0 km/h
215 08-01-2011 18:58:01 13.3 C 5.89 g/m*3 13.3 C 0 km/h
216 08-01-2011 19:10:02 13 C 6.01 g/m*3 13 C 0 km/h
217 08-01-2011 19:22:01 13.1 C 5.93 g/m*3 13.1 C 0 km/h
218 08-01-2011 19:34:01 13.3 C 5.89 g/m*3 13.3 C 0 km/h
219 08-01-2011 19:46:01 13.2 C 5.86 g/m*3 13.2 C 0 km/h
220 08-01-2011 19:58:01 13.2 C 5.97 g/m*3 13.2 C 0 km/h
221 08-01-2011 20:10:02 13.2 C 5.97 g/m*3 13.2 C 0 km/h
222 08-01-2011 20:22:02 12.7 C 6.12 g/m*3 12.7 C 0 km/h
223 08-01-2011 20:34:01 11.8 C 6.53 g/m*3 11.8 C 0 km/h
224 08-01-2011 20:46:02 12.1 C 6.54 g/m*3 12.1 C 0 km/h
225 08-01-2011 20:58:02 11.8 C 6.53 g/m*3 11.8 C 0 km/h
Sensor: Nr:Datum:Temp:Abs-Feuchte:Windchill:Wind:
Aussen-T/F 226 08-01-2011 21:10:01 11.4 C 6.57 g/m*3 11.4 C 0 km/h
227 08-01-2011 21:22:02 11.8 C 6.63 g/m*3 11.8 C 0 km/h
228 08-01-2011 21:34:01 12.2 C 6.58 g/m*3 12.2 C 0 km/h
229 08-01-2011 21:46:02 12.5 C 6.82 g/m*3 12.5 C 0 km/h
230 08-01-2011 21:58:02 12.3 C 6.41 g/m*3 12.3 C 0 km/h
231 08-01-2011 22:10:03 12.5 C 6.38 g/m*3 12.5 C 0 km/h
232 08-01-2011 22:22:02 12.3 C 6.3 g/m*3 12.3 C 0 km/h
233 08-01-2011 22:35:03 11.8 C 6.63 g/m*3 11.8 C 0 km/h
234 08-01-2011 22:47:03 12.2 C 6.58 g/m*3 12.2 C 0 km/h
235 08-01-2011 22:59:03 10.9 C 6.86 g/m*3 10.9 C 0 km/h
236 08-01-2011 23:11:03 10.5 C 6.98 g/m*3 10.5 C 0 km/h
237 08-01-2011 23:23:03 10.6 C 7.12 g/m*3 10.6 C 0 km/h
238 08-01-2011 23:35:03 10.3 C 7.18 g/m*3 10.3 C 0 km/h
239 08-01-2011 23:47:03 10.2 C 7.14 g/m*3 10.2 C 0 km/h
240 08-01-2011 23:59:03 10 C 7.24 g/m*3 10 C 0 km/h
241 09-01-2011 00:11:03 9.8 C 7.42 g/m*3 9.8 C 0 km/h
242 09-01-2011 00:23:04 9.7 C 7.56 g/m*3 9.7 C 0 km/h
243 09-01-2011 00:35:04 9.6 C 7.69 g/m*3 9.6 C 0 km/h
244 09-01-2011 00:47:04 9.6 C 7.79 g/m*3 9.6 C 0 km/h
245 09-01-2011 00:59:04 9.5 C 7.83 g/m*3 9.5 C 0 km/h
246 09-01-2011 01:11:04 9.5 C 7.92 g/m*3 9.5 C 0 km/h
247 09-01-2011 01:23:04 9.7 C 8.02 g/m*3 9.7 C 0 km/h
248 09-01-2011 01:35:04 9.6 C 7.97 g/m*3 9.6 C 0 km/h
249 09-01-2011 01:47:04 9.7 C 8.02 g/m*3 9.7 C 0 km/h
250 09-01-2011 01:59:04 9.6 C 7.97 g/m*3 9.6 C 0 km/h
Sensor: Nr:Datum:Temp:Abs-Feuchte:Windchill:Wind:
Aussen-T/F 251 09-01-2011 02:11:04 9.8 C 8.07 g/m*3 9.8 C 0 km/h
252 09-01-2011 02:23:04 10 C 7.99 g/m*3 10 C 0 km/h
253 09-01-2011 02:35:04 9.8 C 7.98 g/m*3 9.8 C 0 km/h
254 09-01-2011 02:47:04 9.7 C 7.84 g/m*3 9.7 C 0 km/h
255 09-01-2011 02:59:04 9.6 C 7.79 g/m*3 9.6 C 0 km/h
256 09-01-2011 03:11:04 9.5 C 7.83 g/m*3 9.5 C 0 km/h
257 09-01-2011 03:23:04 9.4 C 7.78 g/m*3 9.4 C 0 km/h
258 09-01-2011 03:35:04 9.2 C 7.68 g/m*3 9.2 C 0 km/h
259 09-01-2011 03:47:04 9.2 C 7.77 g/m*3 9.2 C 0 km/h
260 09-01-2011 03:59:04 9.3 C 7.82 g/m*3 9.3 C 0 km/h
261 09-01-2011 04:11:04 9.7 C 7.93 g/m*3 9.7 C 0 km/h
262 09-01-2011 04:23:05 10.8 C 7.91 g/m*3 10.8 C 0 km/h
263 09-01-2011 04:35:05 11 C 7.51 g/m*3 11 C 0 km/h
264 09-01-2011 04:47:05 11.5 C 7.23 g/m*3 11.5 C 0 km/h
265 09-01-2011 04:59:05 11.6 C 7.28 g/m*3 11.6 C 0 km/h
266 09-01-2011 05:11:05 11.8 C 7.26 g/m*3 11.8 C 0 km/h
267 09-01-2011 05:23:05 11.5 C 7.23 g/m*3 11.5 C 0 km/h
268 09-01-2011 05:35:05 11.7 C 7.22 g/m*3 11.7 C 0 km/h
269 09-01-2011 05:47:05 11.1 C 7.15 g/m*3 11.1 C 0 km/h
270 09-01-2011 05:59:05 9.3 C 6.65 g/m*3 9.3 C 0 km/h
271 09-01-2011 06:11:05 8 C 6.45 g/m*3 8 C 0 km/h
272 09-01-2011 06:23:05 7.5 C 6.48 g/m*3 7.5 C 0 km/h
273 09-01-2011 06:35:05 7.2 C 6.52 g/m*3 7.2 C 0 km/h
274 09-01-2011 06:47:05 7 C 6.59 g/m*3 7 C 0 km/h
275 09-01-2011 06:59:05 6.8 C 6.65 g/m*3 6.8 C 0 km/h
Sensor: Nr:Datum:Temp:Abs-Feuchte:Windchill:Wind:
Aussen-T/F 276 09-01-2011 07:11:05 6.6 C 6.57 g/m*3 6.6 C 0 km/h
277 09-01-2011 07:23:05 6.4 C 6.48 g/m*3 6.4 C 0 km/h
278 09-01-2011 07:35:05 6.2 C 6.4 g/m*3 6.2 C 0 km/h
279 09-01-2011 07:47:05 5.8 C 6.3 g/m*3 5.8 C 0 km/h
280 09-01-2011 07:59:05 5.6 C 6.22 g/m*3 5.6 C 0 km/h
281 09-01-2011 08:11:05 5.5 C 6.18 g/m*3 5.5 C 0 km/h
282 09-01-2011 08:23:05 5.3 C 6.1 g/m*3 5.3 C 0 km/h
283 09-01-2011 08:35:06 5.3 C 6.1 g/m*3 5.3 C 0 km/h
284 09-01-2011 08:47:02 5 C 5.98 g/m*3 5 C 0 km/h
285 09-01-2011 08:59:03 4.7 C 5.86 g/m*3 4.7 C 0 km/h
286 09-01-2011 09:11:02 4.3 C 5.64 g/m*3 4.3 C 0 km/h
287 09-01-2011 09:23:02 4.3 C 5.58 g/m*3 4.3 C 0 km/h
288 09-01-2011 09:35:03 4 C 5.47 g/m*3 4 C 0 km/h
289 09-01-2011 09:47:01 3.8 C 5.46 g/m*3 3.8 C 0 km/h
290 09-01-2011 09:59:01 3.5 C 5.35 g/m*3 3.5 C 0 km/h
291 09-01-2011 10:11:02 3 C 5.17 g/m*3 3 C 0 km/h
292 09-01-2011 10:23:01 2.9 C 5.14 g/m*3 2.9 C 0 km/h
293 09-01-2011 10:35:01 2.8 C 5.1 g/m*3 2.8 C 0 km/h
294 09-01-2011 10:47:01 3 C 5.17 g/m*3 3 C 0 km/h
295 09-01-2011 10:59:01 3.4 C 5.31 g/m*3 3.4 C 0 km/h
296 09-01-2011 11:11:01 3.9 C 5.56 g/m*3 3.9 C 0 km/h
297 09-01-2011 11:23:02 4.1 C 5.5 g/m*3 4.1 C 0 km/h
298 09-01-2011 11:35:01 4.1 C 5.44 g/m*3 4.1 C 0 km/h
299 09-01-2011 11:47:02 4.1 C 5.38 g/m*3 4.1 C 0 km/h
300 09-01-2011 11:59:02 4.3 C 5.45 g/m*3 4.3 C 0 km/h
Sensor: Nr:Datum:Temp:Abs-Feuchte:Windchill:Wind:
Aussen-T/F 301 09-01-2011 12:11:01 4.3 C 5.38 g/m*3 4.3 C 0 km/h
302 09-01-2011 12:23:02 4.5 C 5.39 g/m*3 4.5 C 0 km/h
303 09-01-2011 12:35:01 4.6 C 5.36 g/m*3 4.6 C 0 km/h
304 09-01-2011 12:47:02 4.8 C 5.43 g/m*3 4.8 C 0 km/h
305 09-01-2011 12:59:02 4.6 C 5.36 g/m*3 4.6 C 0 km/h
306 09-01-2011 13:11:02 4.8 C 5.43 g/m*3 4.8 C 0 km/h
307 09-01-2011 13:23:02 5.1 C 5.34 g/m*3 5.1 C 0 km/h
308 09-01-2011 13:35:02 5.1 C 5.34 g/m*3 5.1 C 0 km/h
309 09-01-2011 13:47:02 5.2 C 5.23 g/m*3 5.2 C 0 km/h
310 09-01-2011 13:59:02 5.2 C 5.3 g/m*3 5.2 C 0 km/h
311 09-01-2011 14:11:01 5.2 C 5.23 g/m*3 5.2 C 0 km/h
312 09-01-2011 14:23:01 5.3 C 5.27 g/m*3 5.3 C 0 km/h
313 09-01-2011 14:35:02 5.3 C 5.27 g/m*3 5.3 C 0 km/h
314 09-01-2011 14:47:02 5.2 C 5.3 g/m*3 5.2 C 0 km/h
315 09-01-2011 14:59:02 5.2 C 5.23 g/m*3 5.2 C 0 km/h
316 09-01-2011 15:11:02 5 C 5.37 g/m*3 5 C 0 km/h
317 09-01-2011 15:23:02 4.8 C 5.5 g/m*3 4.8 C 0 km/h
318 09-01-2011 15:35:02 4.6 C 5.49 g/m*3 4.6 C 0 km/h
319 09-01-2011 15:47:02 4.4 C 5.42 g/m*3 4.4 C 0 km/h
320 09-01-2011 15:59:02 4.1 C 5.38 g/m*3 4.1 C 0 km/h
321 09-01-2011 16:11:02 3.8 C 5.4 g/m*3 3.8 C 0 km/h
322 09-01-2011 16:23:02 3.4 C 5.31 g/m*3 3.4 C 0 km/h
323 09-01-2011 16:35:02 3.2 C 5.24 g/m*3 3.2 C 0 km/h
324 09-01-2011 16:47:02 3 C 5.23 g/m*3 3 C 0 km/h
325 09-01-2011 16:59:02 2.9 C 5.26 g/m*3 2.9 C 0 km/h
Sensor: Nr:Datum:Temp:Abs-Feuchte:Windchill:Wind:
Aussen-T/F 326 09-01-2011 17:11:02 3.2 C 5.36 g/m*3 3.2 C 0 km/h
327 09-01-2011 17:23:02 2.9 C 5.26 g/m*3 2.9 C 0 km/h
328 09-01-2011 17:35:02 2.7 C 5.19 g/m*3 2.7 C 0 km/h
329 09-01-2011 17:47:02 2.6 C 5.21 g/m*3 2.6 C 0 km/h
330 09-01-2011 17:59:02 2.5 C 5.17 g/m*3 2.5 C 0 km/h
331 09-01-2011 18:11:02 2.2 C 5.07 g/m*3 2.2 C 0 km/h
332 09-01-2011 18:23:03 1.9 C 5.02 g/m*3 1.9 C 0 km/h
333 09-01-2011 18:35:02 1.7 C 4.95 g/m*3 1.7 C 0 km/h
334 09-01-2011 18:47:02 1.5 C 4.89 g/m*3 1.5 C 0 km/h
335 09-01-2011 18:59:02 1.5 C 4.89 g/m*3 1.5 C 0 km/h
336 09-01-2011 19:11:02 1.6 C 4.97 g/m*3 1.6 C 0 km/h
337 09-01-2011 19:23:02 1.7 C 5.01 g/m*3 1.7 C 0 km/h
338 09-01-2011 19:35:02 2 C 5.11 g/m*3 2 C 0 km/h
339 09-01-2011 19:47:02 1.9 C 5.08 g/m*3 1.9 C 0 km/h
340 09-01-2011 19:59:02 1.8 C 5.04 g/m*3 1.8 C 0 km/h
341 09-01-2011 20:11:02 1.4 C 4.91 g/m*3 1.4 C 0 km/h
342 09-01-2011 20:23:02 1.5 C 4.94 g/m*3 1.5 C 0 km/h
343 09-01-2011 20:35:02 1.5 C 4.94 g/m*3 1.5 C 0 km/h
344 09-01-2011 20:47:02 1 C 4.72 g/m*3 1 C 0 km/h
345 09-01-2011 20:59:02 0.8 C 4.71 g/m*3 0.8 C 0 km/h
346 09-01-2011 21:11:02 0.5 C 4.61 g/m*3 0.5 C 0 km/h
347 09-01-2011 21:23:02 0.3 C 4.55 g/m*3 0.3 C 0 km/h
348 09-01-2011 21:35:01 0.9 C 4.79 g/m*3 0.9 C 0 km/h
349 09-01-2011 21:47:02 0.8 C 4.71 g/m*3 0.8 C 0 km/h
350 09-01-2011 21:59:02 0.7 C 4.73 g/m*3 0.7 C 0 km/h
Sensor: Nr:Datum:Temp:Abs-Feuchte:Windchill:Wind:
Aussen-T/F 351 09-01-2011 22:11:02 0.2 C 4.52 g/m*3 0.2 C 0 km/h
352 09-01-2011 22:23:02 0.3 C 4.6 g/m*3 0.3 C 0 km/h
353 09-01-2011 22:36:02 0 C 4.46 g/m*3 0 C 0 km/h
354 09-01-2011 22:48:02 -0.2 C 4.4 g/m*3 -0.2 C 0 km/h
355 09-01-2011 23:00:02 0.1 C 4.54 g/m*3 0.1 C 0 km/h
356 09-01-2011 23:12:02 0.2 C 4.57 g/m*3 0.2 C 0 km/h
357 09-01-2011 23:24:02 -0.3 C 4.41 g/m*3 -0.3 C 0 km/h
358 09-01-2011 23:36:02 0.1 C 4.54 g/m*3 0.1 C 0 km/h
359 09-01-2011 23:48:02 0 C 4.51 g/m*3 0 C 0 km/h
360 10-01-2011 00:00:02 0.3 C 4.6 g/m*3 0.3 C 0 km/h
361 10-01-2011 00:12:02 0.6 C 4.7 g/m*3 0.6 C 0 km/h
362 10-01-2011 00:24:02 0.3 C 4.6 g/m*3 0.3 C 0 km/h
363 10-01-2011 00:36:02 -0.2 C 4.44 g/m*3 -0.2 C 0 km/h
364 10-01-2011 00:48:02 -0.2 C 4.44 g/m*3 -0.2 C 0 km/h
365 10-01-2011 01:00:02 0.2 C 4.57 g/m*3 0.2 C 0 km/h
366 10-01-2011 01:12:02 0.3 C 4.6 g/m*3 0.3 C 0 km/h
367 10-01-2011 01:24:02 0.4 C 4.63 g/m*3 0.4 C 0 km/h
368 10-01-2011 01:36:02 0.3 C 4.65 g/m*3 0.3 C 0 km/h
369 10-01-2011 01:48:02 0.2 C 4.62 g/m*3 0.2 C 0 km/h
370 10-01-2011 02:00:02 0.2 C 4.62 g/m*3 0.2 C 0 km/h
371 10-01-2011 02:12:02 0.1 C 4.54 g/m*3 0.1 C 0 km/h
372 10-01-2011 02:24:02 0 C 4.55 g/m*3 0 C 0 km/h
373 10-01-2011 02:36:03 -0.1 C 4.52 g/m*3 -0.1 C 0 km/h
374 10-01-2011 02:48:03 -0.1 C 4.52 g/m*3 -0.1 C 0 km/h
375 10-01-2011 03:00:03 0 C 4.55 g/m*3 0 C 0 km/h
Sensor: Nr:Datum:Temp:Abs-Feuchte:Windchill:Wind:
Aussen-T/F 376 10-01-2011 03:12:03 0.2 C 4.62 g/m*3 0.2 C 0 km/h
377 10-01-2011 03:24:03 0.3 C 4.65 g/m*3 0.3 C 0 km/h
378 10-01-2011 03:36:03 0.2 C 4.62 g/m*3 0.2 C 0 km/h
379 10-01-2011 03:48:03 0.3 C 4.65 g/m*3 0.3 C 0 km/h
380 10-01-2011 04:00:03 0.4 C 4.68 g/m*3 0.4 C 0 km/h
381 10-01-2011 04:12:03 0.4 C 4.68 g/m*3 0.4 C 0 km/h
382 10-01-2011 04:24:03 0.4 C 4.68 g/m*3 0.4 C 0 km/h
383 10-01-2011 04:36:03 0.4 C 4.68 g/m*3 0.4 C 0 km/h
384 10-01-2011 04:48:03 0.3 C 4.65 g/m*3 0.3 C 0 km/h
385 10-01-2011 05:00:03 0.3 C 4.65 g/m*3 0.3 C 0 km/h
386 10-01-2011 05:12:03 0.3 C 4.65 g/m*3 0.3 C 0 km/h
387 10-01-2011 05:24:03 0.2 C 4.62 g/m*3 0.2 C 0 km/h
388 10-01-2011 05:36:03 0.3 C 4.65 g/m*3 0.3 C 0 km/h
389 10-01-2011 05:48:03 0.2 C 4.57 g/m*3 0.2 C 0 km/h
390 10-01-2011 06:00:03 0.2 C 4.57 g/m*3 0.2 C 0 km/h
391 10-01-2011 06:12:03 0.2 C 4.57 g/m*3 0.2 C 0 km/h
392 10-01-2011 06:24:03 0.2 C 4.57 g/m*3 0.2 C 0 km/h
393 10-01-2011 06:36:04 0.2 C 4.57 g/m*3 0.2 C 0 km/h
394 10-01-2011 06:48:04 0.2 C 4.57 g/m*3 0.2 C 0 km/h
395 10-01-2011 07:00:04 0.2 C 4.57 g/m*3 0.2 C 0 km/h
396 10-01-2011 07:12:01 -0.1 C 4.47 g/m*3 -0.1 C 0 km/h
397 10-01-2011 07:24:02 0 C 4.51 g/m*3 0 C 0 km/h
398 10-01-2011 07:36:01 0.1 C 4.54 g/m*3 0.1 C 0 km/h
399 10-01-2011 07:48:02 0.3 C 4.6 g/m*3 0.3 C 0 km/h
400 10-01-2011 08:00:02 0.3 C 4.6 g/m*3 0.3 C 0 km/h
Sensor: Nr:Datum:Temp:Abs-Feuchte:Windchill:Wind:
Aussen-T/F 401 10-01-2011 08:12:01 0.2 C 4.52 g/m*3 0.2 C 0 km/h
402 10-01-2011 08:24:02 0.2 C 4.52 g/m*3 0.2 C 0 km/h
403 10-01-2011 08:36:01 0.1 C 4.44 g/m*3 0.1 C 0 km/h
404 10-01-2011 08:48:03 0.1 C 4.44 g/m*3 0.1 C 0 km/h
405 10-01-2011 09:00:03 0.2 C 4.47 g/m*3 0.2 C 0 km/h
406 10-01-2011 09:12:02 0.3 C 4.45 g/m*3 0.3 C 0 km/h
407 10-01-2011 09:24:02 0.4 C 4.48 g/m*3 0.4 C 0 km/h
408 10-01-2011 09:36:02 0.3 C 4.4 g/m*3 0.3 C 0 km/h
409 10-01-2011 09:48:02 0.4 C 4.43 g/m*3 0.4 C 0 km/h
410 10-01-2011 10:00:02 0.5 C 4.41 g/m*3 0.5 C 0 km/h
411 10-01-2011 10:12:02 0.2 C 4.27 g/m*3 0.2 C 0 km/h
412 10-01-2011 10:24:02 0.5 C 4.36 g/m*3 0.5 C 0 km/h
413 10-01-2011 10:36:02 0.7 C 4.37 g/m*3 0.7 C 0 km/h
414 10-01-2011 10:48:02 0.8 C 4.4 g/m*3 0.8 C 0 km/h
415 10-01-2011 11:00:02 1.1 C 4.39 g/m*3 1.1 C 0 km/h
416 10-01-2011 11:12:01 0.5 C 4.16 g/m*3 0.5 C 0 km/h
417 10-01-2011 11:24:01 0.8 C 4.2 g/m*3 0.8 C 0 km/h
418 10-01-2011 11:36:02 0.8 C 4.15 g/m*3 0.8 C 0 km/h
419 10-01-2011 11:48:02 1.2 C 4.21 g/m*3 1.2 C 0 km/h
420 10-01-2011 12:00:02 1.3 C 4.24 g/m*3 1.3 C 0 km/h
421 10-01-2011 12:12:02 1.7 C 4.3 g/m*3 1.7 C 0 km/h
422 10-01-2011 12:24:01 2.1 C 4.36 g/m*3 2.1 C 0 km/h
423 10-01-2011 12:36:02 2 C 4.33 g/m*3 2 C 0 km/h
424 10-01-2011 12:48:02 1.8 C 4.28 g/m*3 1.8 C 0 km/h
425 10-01-2011 13:00:02 2.1 C 4.36 g/m*3 2.1 C 0 km/h
Sensor: Nr:Datum:Temp:Abs-Feuchte:Windchill:Wind:
Aussen-T/F 426 10-01-2011 13:12:02 2 C 4.33 g/m*3 2 C 0 km/h
427 10-01-2011 13:24:01 2 C 4.39 g/m*3 2 C 0 km/h
428 10-01-2011 13:36:02 2.2 C 4.45 g/m*3 2.2 C 0 km/h
429 10-01-2011 13:48:02 2.2 C 4.39 g/m*3 2.2 C 0 km/h
430 10-01-2011 14:00:02 2.4 C 4.45 g/m*3 2.4 C 0 km/h
431 10-01-2011 14:12:02 2.5 C 4.48 g/m*3 2.5 C 0 km/h
432 10-01-2011 14:24:02 2.3 C 4.48 g/m*3 2.3 C 0 km/h
433 10-01-2011 14:36:02 2.1 C 4.36 g/m*3 2.1 C 0 km/h
434 10-01-2011 14:48:02 2 C 4.33 g/m*3 2 C 0 km/h
435 10-01-2011 15:00:02 2 C 4.33 g/m*3 2 C 0 km/h
436 10-01-2011 15:12:02 2.1 C 4.36 g/m*3 2.1 C 0 km/h
437 10-01-2011 15:24:02 2.1 C 4.36 g/m*3 2.1 C 0 km/h
438 10-01-2011 15:36:01 2.2 C 4.39 g/m*3 2.2 C 0 km/h
439 10-01-2011 15:48:02 2.1 C 4.36 g/m*3 2.1 C 0 km/h
440 10-01-2011 16:00:02 2.1 C 4.36 g/m*3 2.1 C 0 km/h
441 10-01-2011 16:12:01 2 C 4.33 g/m*3 2 C 0 km/h
442 10-01-2011 16:24:02 1.9 C 4.36 g/m*3 1.9 C 0 km/h
443 10-01-2011 16:36:02 1.8 C 4.33 g/m*3 1.8 C 0 km/h
444 10-01-2011 16:48:02 1.5 C 4.24 g/m*3 1.5 C 0 km/h
445 10-01-2011 17:00:02 1.2 C 4.21 g/m*3 1.2 C 0 km/h
446 10-01-2011 17:12:02 0.8 C 4.2 g/m*3 0.8 C 0 km/h
447 10-01-2011 17:24:02 0.7 C 4.22 g/m*3 0.7 C 0 km/h
448 10-01-2011 17:36:02 0.7 C 4.27 g/m*3 0.7 C 0 km/h
449 10-01-2011 17:48:02 0.8 C 4.3 g/m*3 0.8 C 0 km/h
450 10-01-2011 18:00:02 0.7 C 4.27 g/m*3 0.7 C 0 km/h
Sensor: Nr:Datum:Temp:Abs-Feuchte:Windchill:Wind:
Aussen-T/F 451 10-01-2011 18:12:01 0.4 C 4.18 g/m*3 0.4 C 0 km/h
452 10-01-2011 18:24:02 0.1 C 4.1 g/m*3 0.1 C 0 km/h
453 10-01-2011 18:36:02 -0.1 C 4.09 g/m*3 -0.1 C 0 km/h
454 10-01-2011 18:48:02 0 C 4.17 g/m*3 0 C 0 km/h
455 10-01-2011 19:00:02 0.1 C 4.24 g/m*3 0.1 C 0 km/h
456 10-01-2011 19:12:02 0.2 C 4.27 g/m*3 0.2 C 0 km/h
457 10-01-2011 19:24:02 0.2 C 4.32 g/m*3 0.2 C 0 km/h
458 10-01-2011 19:36:02 0.4 C 4.38 g/m*3 0.4 C 0 km/h
459 10-01-2011 19:48:02 0.4 C 4.38 g/m*3 0.4 C 0 km/h
460 10-01-2011 20:00:02 0.4 C 4.38 g/m*3 0.4 C 0 km/h
461 10-01-2011 20:12:02 0.6 C 4.39 g/m*3 0.6 C 0 km/h
462 10-01-2011 20:24:01 0.8 C 4.4 g/m*3 0.8 C 0 km/h
463 10-01-2011 20:36:02 0.8 C 4.3 g/m*3 0.8 C 0 km/h
464 10-01-2011 20:48:02 0.8 C 4.25 g/m*3 0.8 C 0 km/h
465 10-01-2011 21:00:02 0.7 C 4.12 g/m*3 0.7 C 0 km/h
466 10-01-2011 21:12:02 0.6 C 4.04 g/m*3 0.6 C 0 km/h
467 10-01-2011 21:24:01 0.5 C 4.01 g/m*3 0.5 C 0 km/h
468 10-01-2011 21:36:02 0.5 C 4.01 g/m*3 0.5 C 0 km/h
469 10-01-2011 21:48:02 0.5 C 4.01 g/m*3 0.5 C 0 km/h
470 10-01-2011 22:00:02 0.5 C 4.06 g/m*3 0.5 C 0 km/h
471 10-01-2011 22:12:02 0.5 C 4.06 g/m*3 0.5 C 0 km/h
472 10-01-2011 22:25:04 0.5 C 4.06 g/m*3 0.5 C 0 km/h
473 10-01-2011 22:37:04 0.5 C 4.06 g/m*3 0.5 C 0 km/h
474 10-01-2011 22:49:04 0.5 C 4.01 g/m*3 0.5 C 0 km/h
475 10-01-2011 23:01:04 0.5 C 4.01 g/m*3 0.5 C 0 km/h
Sensor: Nr:Datum:Temp:Abs-Feuchte:Windchill:Wind:
Aussen-T/F 476 10-01-2011 23:13:04 0.5 C 4.01 g/m*3 0.5 C 0 km/h
477 10-01-2011 23:25:04 0.5 C 4.01 g/m*3 0.5 C 0 km/h
478 10-01-2011 23:37:04 0.6 C 4.09 g/m*3 0.6 C 0 km/h
479 10-01-2011 23:49:04 0.6 C 4.09 g/m*3 0.6 C 0 km/h
480 11-01-2011 00:01:04 0.6 C 4.04 g/m*3 0.6 C 0 km/h
481 11-01-2011 00:13:05 0.5 C 3.96 g/m*3 0.5 C 0 km/h
482 11-01-2011 00:25:05 0.3 C 3.96 g/m*3 0.3 C 0 km/h
483 11-01-2011 00:37:05 -0.2 C 3.82 g/m*3 -0.2 C 0 km/h
484 11-01-2011 00:49:05 -0.4 C 3.86 g/m*3 -0.4 C 0 km/h
485 11-01-2011 01:01:05 -0.2 C 4.01 g/m*3 -0.2 C 0 km/h
486 11-01-2011 01:13:05 -0.1 C 4.04 g/m*3 -0.1 C 0 km/h
487 11-01-2011 01:25:05 -0.4 C 4.01 g/m*3 -0.4 C 0 km/h
488 11-01-2011 01:37:05 -0.1 C 4.14 g/m*3 -0.1 C 0 km/h
489 11-01-2011 01:49:05 0.2 C 4.22 g/m*3 0.2 C 0 km/h
490 11-01-2011 02:01:05 0.6 C 4.29 g/m*3 0.6 C 0 km/h
491 11-01-2011 02:13:05 0.7 C 4.22 g/m*3 0.7 C 0 km/h
492 11-01-2011 02:25:05 0.8 C 4.2 g/m*3 0.8 C 0 km/h
493 11-01-2011 02:37:05 1 C 4.1 g/m*3 1 C 0 km/h
494 11-01-2011 02:49:05 0.8 C 4.04 g/m*3 0.8 C 0 km/h
495 11-01-2011 03:01:05 0.8 C 4.04 g/m*3 0.8 C 0 km/h
496 11-01-2011 03:13:05 0.8 C 4.04 g/m*3 0.8 C 0 km/h
497 11-01-2011 03:25:05 0.6 C 4.04 g/m*3 0.6 C 0 km/h
498 11-01-2011 03:37:05 0.8 C 4.1 g/m*3 0.8 C 0 km/h
499 11-01-2011 03:49:05 0.6 C 4.04 g/m*3 0.6 C 0 km/h
500 11-01-2011 04:01:05 0.3 C 3.96 g/m*3 0.3 C 0 km/h
Sensor: Nr:Datum:Temp:Abs-Feuchte:Windchill:Wind:
Aussen-T/F 501 11-01-2011 04:13:06 0.2 C 3.98 g/m*3 0.2 C 0 km/h
502 11-01-2011 04:25:06 0.1 C 4 g/m*3 0.1 C 0 km/h
503 11-01-2011 04:37:06 0.6 C 4.14 g/m*3 0.6 C 0 km/h
504 11-01-2011 04:49:06 0.9 C 4.18 g/m*3 0.9 C 0 km/h
505 11-01-2011 05:01:06 1.1 C 4.13 g/m*3 1.1 C 0 km/h
506 11-01-2011 05:13:06 1.1 C 4.13 g/m*3 1.1 C 0 km/h
507 11-01-2011 05:25:06 1.1 C 4.13 g/m*3 1.1 C 0 km/h
508 11-01-2011 05:37:06 1.1 C 4.13 g/m*3 1.1 C 0 km/h
509 11-01-2011 05:49:06 1.1 C 4.13 g/m*3 1.1 C 0 km/h
510 11-01-2011 06:01:06 1.2 C 4.16 g/m*3 1.2 C 0 km/h
511 11-01-2011 06:13:06 1.2 C 4.16 g/m*3 1.2 C 0 km/h
512 11-01-2011 06:25:06 1.3 C 4.19 g/m*3 1.3 C 0 km/h
513 11-01-2011 06:37:06 1.3 C 4.24 g/m*3 1.3 C 0 km/h
514 11-01-2011 06:49:06 1.3 C 4.24 g/m*3 1.3 C 0 km/h
515 11-01-2011 07:01:06 1.4 C 4.27 g/m*3 1.4 C 0 km/h
516 11-01-2011 07:13:06 1.4 C 4.32 g/m*3 1.4 C 0 km/h
517 11-01-2011 07:25:03 1.4 C 4.32 g/m*3 1.4 C 0 km/h
518 11-01-2011 07:37:03 1.4 C 4.32 g/m*3 1.4 C 0 km/h
519 11-01-2011 07:49:02 1.5 C 4.4 g/m*3 1.5 C 0 km/h
520 11-01-2011 08:01:02 1.5 C 4.4 g/m*3 1.5 C 0 km/h
521 11-01-2011 08:13:02 1.5 C 4.4 g/m*3 1.5 C 0 km/h
522 11-01-2011 08:25:03 1.5 C 4.46 g/m*3 1.5 C 0 km/h
523 11-01-2011 08:37:02 1.5 C 4.46 g/m*3 1.5 C 0 km/h
524 11-01-2011 08:49:03 1.5 C 4.51 g/m*3 1.5 C 0 km/h
525 11-01-2011 09:01:02 1.6 C 4.54 g/m*3 1.6 C 0 km/h
Sensor: Nr:Datum:Temp:Abs-Feuchte:Windchill:Wind:
Aussen-T/F 526 11-01-2011 09:13:02 1.8 C 4.66 g/m*3 1.8 C 0 km/h
527 11-01-2011 09:25:02 2 C 4.67 g/m*3 2 C 0 km/h
528 11-01-2011 09:37:02 2.3 C 4.71 g/m*3 2.3 C 0 km/h
529 11-01-2011 09:49:02 2.6 C 4.75 g/m*3 2.6 C 0 km/h
530 11-01-2011 10:01:02 2.9 C 4.72 g/m*3 2.9 C 0 km/h
531 11-01-2011 10:13:02 3.2 C 4.7 g/m*3 3.2 C 0 km/h
532 11-01-2011 10:25:02 3.2 C 4.58 g/m*3 3.2 C 0 km/h
533 11-01-2011 10:37:02 3.2 C 4.58 g/m*3 3.2 C 0 km/h
534 11-01-2011 10:49:02 2.7 C 4.54 g/m*3 2.7 C 0 km/h
535 11-01-2011 11:01:02 2.5 C 4.6 g/m*3 2.5 C 0 km/h
536 11-01-2011 11:13:02 2.6 C 4.75 g/m*3 2.6 C 0 km/h
537 11-01-2011 11:25:02 2.8 C 4.87 g/m*3 2.8 C 0 km/h
538 11-01-2011 11:37:02 3.7 C 5.17 g/m*3 3.7 C 0 km/h
539 11-01-2011 11:49:02 4.8 C 5.1 g/m*3 4.8 C 0 km/h
540 11-01-2011 12:01:02 5.4 C 4.74 g/m*3 5.4 C 0 km/h
541 11-01-2011 12:13:02 5.7 C 4.63 g/m*3 5.7 C 0 km/h
542 11-01-2011 12:25:02 5.7 C 4.55 g/m*3 5.7 C 0 km/h
543 11-01-2011 12:37:01 5.6 C 4.6 g/m*3 5.6 C 0 km/h
544 11-01-2011 12:49:02 5.1 C 4.58 g/m*3 5.1 C 0 km/h
545 11-01-2011 13:01:01 5.2 C 4.75 g/m*3 5.2 C 0 km/h
546 11-01-2011 13:13:01 5.1 C 4.72 g/m*3 5.1 C 0 km/h
547 11-01-2011 13:25:01 5.3 C 4.71 g/m*3 5.3 C 0 km/h
548 11-01-2011 13:37:02 5.5 C 4.85 g/m*3 5.5 C 0 km/h
549 11-01-2011 13:49:02 5.4 C 4.74 g/m*3 5.4 C 0 km/h
550 11-01-2011 14:01:02 5.3 C 4.85 g/m*3 5.3 C 0 km/h
Sensor: Nr:Datum:Temp:Abs-Feuchte:Windchill:Wind:
Aussen-T/F 551 11-01-2011 14:13:02 5.3 C 4.92 g/m*3 5.3 C 0 km/h
552 11-01-2011 14:25:02 5.3 C 4.85 g/m*3 5.3 C 0 km/h
553 11-01-2011 14:37:02 5.3 C 4.92 g/m*3 5.3 C 0 km/h
554 11-01-2011 14:49:02 5.3 C 4.92 g/m*3 5.3 C 0 km/h
555 11-01-2011 15:01:02 5.3 C 5.06 g/m*3 5.3 C 0 km/h
556 11-01-2011 15:13:02 5.5 C 5.06 g/m*3 5.5 C 0 km/h
557 11-01-2011 15:25:02 5.6 C 5.02 g/m*3 5.6 C 0 km/h
558 11-01-2011 15:37:02 5.3 C 5.06 g/m*3 5.3 C 0 km/h
559 11-01-2011 15:49:01 5.1 C 5.13 g/m*3 5.1 C 0 km/h
560 11-01-2011 16:01:01 4.8 C 5.3 g/m*3 4.8 C 0 km/h
561 11-01-2011 16:13:01 4.6 C 5.43 g/m*3 4.6 C 0 km/h
562 11-01-2011 16:25:02 4.5 C 5.46 g/m*3 4.5 C 0 km/h
563 11-01-2011 16:37:01 4.5 C 5.46 g/m*3 4.5 C 0 km/h
564 11-01-2011 16:49:03 4.5 C 5.46 g/m*3 4.5 C 0 km/h
565 11-01-2011 17:01:02 4.7 C 5.53 g/m*3 4.7 C 0 km/h
566 11-01-2011 17:13:02 4.7 C 5.46 g/m*3 4.7 C 0 km/h
567 11-01-2011 17:25:02 5.2 C 5.44 g/m*3 5.2 C 0 km/h
568 11-01-2011 17:37:02 5.4 C 5.44 g/m*3 5.4 C 0 km/h
569 11-01-2011 17:49:02 5.5 C 5.41 g/m*3 5.5 C 0 km/h
570 11-01-2011 18:01:02 5.3 C 5.41 g/m*3 5.3 C 0 km/h
571 11-01-2011 18:13:02 5.3 C 5.48 g/m*3 5.3 C 0 km/h
572 11-01-2011 18:25:02 5.4 C 5.51 g/m*3 5.4 C 0 km/h
573 11-01-2011 18:37:02 5.6 C 5.59 g/m*3 5.6 C 0 km/h
574 11-01-2011 18:49:02 5.8 C 5.59 g/m*3 5.8 C 0 km/h
575 11-01-2011 19:01:01 6 C 5.52 g/m*3 6 C 0 km/h
Sensor: Nr:Datum:Temp:Abs-Feuchte:Windchill:Wind:
Aussen-T/F 576 11-01-2011 19:13:01 6 C 5.52 g/m*3 6 C 0 km/h
577 11-01-2011 19:25:01 6 C 5.59 g/m*3 6 C 0 km/h
578 11-01-2011 19:37:02 6 C 5.59 g/m*3 6 C 0 km/h
579 11-01-2011 19:49:02 5.9 C 5.62 g/m*3 5.9 C 0 km/h
580 11-01-2011 20:01:02 6 C 5.59 g/m*3 6 C 0 km/h
581 11-01-2011 20:13:02 6.1 C 5.63 g/m*3 6.1 C 0 km/h
582 11-01-2011 20:25:02 6.1 C 5.63 g/m*3 6.1 C 0 km/h
583 11-01-2011 20:37:02 6.2 C 5.59 g/m*3 6.2 C 0 km/h
584 11-01-2011 20:49:02 6.3 C 5.55 g/m*3 6.3 C 0 km/h
585 11-01-2011 21:01:02 6.3 C 5.63 g/m*3 6.3 C 0 km/h
586 11-01-2011 21:13:02 6.3 C 5.63 g/m*3 6.3 C 0 km/h
587 11-01-2011 21:25:02 6.1 C 5.63 g/m*3 6.1 C 0 km/h
588 11-01-2011 21:37:02 6.1 C 5.7 g/m*3 6.1 C 0 km/h
589 11-01-2011 21:50:03 6 C 5.73 g/m*3 6 C 0 km/h
590 11-01-2011 22:02:03 5.8 C 5.8 g/m*3 5.8 C 0 km/h
591 11-01-2011 22:14:03 5.9 C 5.91 g/m*3 5.9 C 0 km/h
592 11-01-2011 22:26:03 5.9 C 5.91 g/m*3 5.9 C 0 km/h
593 11-01-2011 22:38:03 6.3 C 6 g/m*3 6.3 C 0 km/h
594 11-01-2011 22:50:03 5.9 C 5.91 g/m*3 5.9 C 0 km/h
595 11-01-2011 23:02:03 5.9 C 6.06 g/m*3 5.9 C 0 km/h
596 11-01-2011 23:14:03 5.9 C 6.06 g/m*3 5.9 C 0 km/h
597 11-01-2011 23:26:03 6 C 6.02 g/m*3 6 C 0 km/h
598 11-01-2011 23:38:03 6.1 C 5.99 g/m*3 6.1 C 0 km/h
599 11-01-2011 23:50:03 6.1 C 5.92 g/m*3 6.1 C 0 km/h
600 12-01-2011 00:02:03 6.3 C 5.77 g/m*3 6.3 C 0 km/h
Sensor: Nr:Datum:Temp:Abs-Feuchte:Windchill:Wind:
Aussen-T/F 601 12-01-2011 00:14:03 6.5 C 5.62 g/m*3 6.5 C 0 km/h
602 12-01-2011 00:26:03 6.2 C 5.37 g/m*3 6.2 C 0 km/h
603 12-01-2011 00:38:03 5.9 C 5.26 g/m*3 5.9 C 0 km/h
604 12-01-2011 00:50:04 5.8 C 5.3 g/m*3 5.8 C 0 km/h
605 12-01-2011 01:02:04 5.9 C 5.34 g/m*3 5.9 C 0 km/h
606 12-01-2011 01:14:04 5.8 C 5.3 g/m*3 5.8 C 0 km/h
607 12-01-2011 01:26:04 6 C 5.23 g/m*3 6 C 0 km/h
608 12-01-2011 01:38:04 6 C 5.15 g/m*3 6 C 0 km/h
609 12-01-2011 01:50:04 6.1 C 5.11 g/m*3 6.1 C 0 km/h
610 12-01-2011 02:02:04 6 C 5.08 g/m*3 6 C 0 km/h
611 12-01-2011 02:14:04 6 C 5.08 g/m*3 6 C 0 km/h
612 12-01-2011 02:26:04 5.9 C 5.12 g/m*3 5.9 C 0 km/h
613 12-01-2011 02:38:04 5.9 C 5.05 g/m*3 5.9 C 0 km/h
614 12-01-2011 02:50:04 5.7 C 4.98 g/m*3 5.7 C 0 km/h
615 12-01-2011 03:02:04 5.5 C 4.99 g/m*3 5.5 C 0 km/h
616 12-01-2011 03:14:04 5 C 5.1 g/m*3 5 C 0 km/h
617 12-01-2011 03:26:04 4.9 C 5.27 g/m*3 4.9 C 0 km/h
618 12-01-2011 03:38:04 4.7 C 5.26 g/m*3 4.7 C 0 km/h
619 12-01-2011 03:50:04 4.5 C 5.26 g/m*3 4.5 C 0 km/h
620 12-01-2011 04:02:04 4.3 C 5.32 g/m*3 4.3 C 0 km/h
621 12-01-2011 04:14:04 4.3 C 5.32 g/m*3 4.3 C 0 km/h
622 12-01-2011 04:26:04 4.1 C 5.31 g/m*3 4.1 C 0 km/h
623 12-01-2011 04:38:04 3.9 C 5.37 g/m*3 3.9 C 0 km/h
624 12-01-2011 04:50:05 3.8 C 5.4 g/m*3 3.8 C 0 km/h
625 12-01-2011 05:02:05 3.8 C 5.33 g/m*3 3.8 C 0 km/h
Sensor: Nr:Datum:Temp:Abs-Feuchte:Windchill:Wind:
Aussen-T/F 626 12-01-2011 05:14:05 3.8 C 5.27 g/m*3 3.8 C 0 km/h
627 12-01-2011 05:26:05 3.7 C 5.23 g/m*3 3.7 C 0 km/h
628 12-01-2011 05:38:05 3.7 C 5.17 g/m*3 3.7 C 0 km/h
629 12-01-2011 05:50:05 3.8 C 5.21 g/m*3 3.8 C 0 km/h
630 12-01-2011 06:02:05 3.6 C 5.14 g/m*3 3.6 C 0 km/h
631 12-01-2011 06:14:05 3.5 C 5.16 g/m*3 3.5 C 0 km/h
632 12-01-2011 06:26:05 3.6 C 5.14 g/m*3 3.6 C 0 km/h
633 12-01-2011 06:38:05 3.6 C 5.14 g/m*3 3.6 C 0 km/h
634 12-01-2011 06:50:05 3.5 C 5.04 g/m*3 3.5 C 0 km/h
635 12-01-2011 07:02:02 3.5 C 5.04 g/m*3 3.5 C 0 km/h
636 12-01-2011 07:14:02 3.6 C 5.08 g/m*3 3.6 C 0 km/h
637 12-01-2011 07:26:02 3.3 C 4.97 g/m*3 3.3 C 0 km/h
638 12-01-2011 07:38:02 3.1 C 4.97 g/m*3 3.1 C 0 km/h
639 12-01-2011 07:50:01 3.1 C 5.03 g/m*3 3.1 C 0 km/h
640 12-01-2011 08:02:01 3 C 4.99 g/m*3 3 C 0 km/h
641 12-01-2011 08:14:01 2.8 C 4.93 g/m*3 2.8 C 0 km/h
642 12-01-2011 08:26:01 3.1 C 5.03 g/m*3 3.1 C 0 km/h
643 12-01-2011 08:38:01 3 C 4.99 g/m*3 3 C 0 km/h
644 12-01-2011 08:50:01 3 C 4.99 g/m*3 3 C 0 km/h
645 12-01-2011 09:02:01 3.5 C 5.16 g/m*3 3.5 C 0 km/h
646 12-01-2011 09:14:01 3.5 C 5.04 g/m*3 3.5 C 0 km/h
647 12-01-2011 09:26:02 3.7 C 5.11 g/m*3 3.7 C 0 km/h
648 12-01-2011 09:38:01 4 C 4.96 g/m*3 4 C 0 km/h
649 12-01-2011 09:50:02 4.5 C 4.93 g/m*3 4.5 C 0 km/h
650 12-01-2011 10:02:02 4.6 C 4.83 g/m*3 4.6 C 0 km/h
Sensor: Nr:Datum:Temp:Abs-Feuchte:Windchill:Wind:
Aussen-T/F 651 12-01-2011 10:14:02 4.7 C 4.93 g/m*3 4.7 C 0 km/h
652 12-01-2011 10:26:01 4.9 C 4.93 g/m*3 4.9 C 0 km/h
653 12-01-2011 10:38:02 4.9 C 4.86 g/m*3 4.9 C 0 km/h
654 12-01-2011 10:50:02 5 C 4.82 g/m*3 5 C 0 km/h
655 12-01-2011 11:02:02 5.1 C 4.86 g/m*3 5.1 C 0 km/h
656 12-01-2011 11:14:02 5.2 C 4.82 g/m*3 5.2 C 0 km/h
657 12-01-2011 11:26:01 5.4 C 4.81 g/m*3 5.4 C 0 km/h
658 12-01-2011 11:38:02 5.3 C 4.85 g/m*3 5.3 C 0 km/h
659 12-01-2011 11:50:01 5.3 C 4.92 g/m*3 5.3 C 0 km/h
660 12-01-2011 12:02:02 5.2 C 4.96 g/m*3 5.2 C 0 km/h
661 12-01-2011 12:14:02 5 C 5.03 g/m*3 5 C 0 km/h
662 12-01-2011 12:26:02 4.8 C 5.1 g/m*3 4.8 C 0 km/h
663 12-01-2011 12:38:02 4.7 C 5.13 g/m*3 4.7 C 0 km/h
664 12-01-2011 12:50:02 4.7 C 5.2 g/m*3 4.7 C 0 km/h
665 12-01-2011 13:02:02 4.7 C 5.2 g/m*3 4.7 C 0 km/h
666 12-01-2011 13:14:03 4.9 C 5.33 g/m*3 4.9 C 0 km/h
667 12-01-2011 13:26:01 5 C 5.37 g/m*3 5 C 0 km/h
668 12-01-2011 13:38:46 5 C 5.44 g/m*3 5 C 0 km/h
669 12-01-2011 13:50:02 4.9 C 5.54 g/m*3 4.9 C 0 km/h
670 12-01-2011 14:02:02 5 C 5.5 g/m*3 5 C 0 km/h
671 12-01-2011 14:14:02 5.1 C 5.47 g/m*3 5.1 C 0 km/h
672 12-01-2011 14:26:02 5.1 C 5.54 g/m*3 5.1 C 0 km/h
673 12-01-2011 14:38:02 5.1 C 5.54 g/m*3 5.1 C 0 km/h
674 12-01-2011 14:50:02 5.3 C 5.54 g/m*3 5.3 C 0 km/h
675 12-01-2011 15:02:01 5.6 C 5.51 g/m*3 5.6 C 0 km/h
Sensor: Nr:Datum:Temp:Abs-Feuchte:Windchill:Wind:
Aussen-T/F 676 12-01-2011 15:14:01 5.4 C 5.44 g/m*3 5.4 C 0 km/h
677 12-01-2011 15:26:02 5.2 C 5.44 g/m*3 5.2 C 0 km/h
678 12-01-2011 15:38:02 5.3 C 5.54 g/m*3 5.3 C 0 km/h
679 12-01-2011 15:50:02 5.6 C 5.59 g/m*3 5.6 C 0 km/h
680 12-01-2011 16:02:02 6 C 5.44 g/m*3 6 C 0 km/h
681 12-01-2011 16:14:02 5.9 C 5.48 g/m*3 5.9 C 0 km/h
682 12-01-2011 16:26:02 6 C 5.44 g/m*3 6 C 0 km/h
683 12-01-2011 16:38:02 6.1 C 5.48 g/m*3 6.1 C 0 km/h
684 12-01-2011 16:50:02 6.2 C 5.52 g/m*3 6.2 C 0 km/h
685 12-01-2011 17:02:02 6.2 C 5.52 g/m*3 6.2 C 0 km/h
686 12-01-2011 17:14:02 6.3 C 5.55 g/m*3 6.3 C 0 km/h
687 12-01-2011 17:26:02 6.4 C 5.59 g/m*3 6.4 C 0 km/h
688 12-01-2011 17:38:02 6 C 5.59 g/m*3 6 C 0 km/h
689 12-01-2011 17:50:01 6.1 C 5.77 g/m*3 6.1 C 0 km/h
690 12-01-2011 18:02:02 6.3 C 5.77 g/m*3 6.3 C 0 km/h
691 12-01-2011 18:14:02 6 C 5.81 g/m*3 6 C 0 km/h
692 12-01-2011 18:26:01 6 C 5.88 g/m*3 6 C 0 km/h
693 12-01-2011 18:38:01 6.2 C 6.03 g/m*3 6.2 C 0 km/h
694 12-01-2011 18:50:01 6.1 C 6.06 g/m*3 6.1 C 0 km/h
695 12-01-2011 19:02:01 6.1 C 6.06 g/m*3 6.1 C 0 km/h
696 12-01-2011 19:14:01 6 C 6.1 g/m*3 6 C 0 km/h
697 12-01-2011 19:26:02 6.3 C 6.22 g/m*3 6.3 C 0 km/h
698 12-01-2011 19:38:01 6.5 C 6.22 g/m*3 6.5 C 0 km/h
699 12-01-2011 19:50:02 6.6 C 6.27 g/m*3 6.6 C 0 km/h
700 12-01-2011 20:02:02 6.9 C 6.31 g/m*3 6.9 C 0 km/h
Sensor: Nr:Datum:Temp:Abs-Feuchte:Windchill:Wind:
Aussen-T/F 701 12-01-2011 20:14:02 6.8 C 6.27 g/m*3 6.8 C 0 km/h
702 12-01-2011 20:26:02 7 C 6.28 g/m*3 7 C 0 km/h
703 12-01-2011 20:38:02 7.1 C 6.24 g/m*3 7.1 C 0 km/h
704 12-01-2011 20:50:02 7.1 C 6.32 g/m*3 7.1 C 0 km/h
705 12-01-2011 21:02:01 7.1 C 6.4 g/m*3 7.1 C 0 km/h
706 12-01-2011 21:14:01 7.2 C 6.44 g/m*3 7.2 C 0 km/h
707 12-01-2011 21:26:02 7.5 C 6.64 g/m*3 7.5 C 0 km/h
708 12-01-2011 21:38:02 7.5 C 6.56 g/m*3 7.5 C 0 km/h
709 12-01-2011 21:50:02 7.4 C 6.52 g/m*3 7.4 C 0 km/h
710 12-01-2011 22:02:02 7.7 C 6.73 g/m*3 7.7 C 0 km/h
711 12-01-2011 22:14:02 7.7 C 6.65 g/m*3 7.7 C 0 km/h
712 12-01-2011 22:26:02 7.9 C 6.74 g/m*3 7.9 C 0 km/h
713 12-01-2011 22:38:02 8.2 C 6.7 g/m*3 8.2 C 0 km/h
714 12-01-2011 22:50:02 8.3 C 6.74 g/m*3 8.3 C 0 km/h
715 12-01-2011 23:02:02 8.5 C 6.74 g/m*3 8.5 C 0 km/h
716 12-01-2011 23:14:02 8.7 C 6.83 g/m*3 8.7 C 0 km/h
717 12-01-2011 23:26:01 8.8 C 6.88 g/m*3 8.8 C 0 km/h
718 12-01-2011 23:38:02 8.9 C 6.83 g/m*3 8.9 C 0 km/h
719 12-01-2011 23:50:02 8.9 C 6.83 g/m*3 8.9 C 0 km/h
720 13-01-2011 00:02:02 9 C 6.88 g/m*3 9 C 0 km/h
721 13-01-2011 00:14:02 9.3 C 6.92 g/m*3 9.3 C 0 km/h
722 13-01-2011 00:26:02 9.3 C 7.01 g/m*3 9.3 C 0 km/h
723 13-01-2011 00:38:02 9.4 C 7.05 g/m*3 9.4 C 0 km/h
724 13-01-2011 00:50:01 9.5 C 7.1 g/m*3 9.5 C 0 km/h
725 13-01-2011 01:02:02 9.7 C 7.19 g/m*3 9.7 C 0 km/h
Sensor: Nr:Datum:Temp:Abs-Feuchte:Windchill:Wind:
Aussen-T/F 726 13-01-2011 01:14:02 9.9 C 7.28 g/m*3 9.9 C 0 km/h
727 13-01-2011 01:26:02 10 C 7.24 g/m*3 10 C 0 km/h
728 13-01-2011 01:38:02 10.1 C 7.28 g/m*3 10.1 C 0 km/h
729 13-01-2011 01:50:02 10.2 C 7.33 g/m*3 10.2 C 0 km/h
730 13-01-2011 02:02:02 10.5 C 7.37 g/m*3 10.5 C 0 km/h
731 13-01-2011 02:14:02 10.7 C 7.56 g/m*3 10.7 C 0 km/h
732 13-01-2011 02:26:02 10.7 C 7.56 g/m*3 10.7 C 0 km/h
733 13-01-2011 02:38:01 10.7 C 7.66 g/m*3 10.7 C 0 km/h
734 13-01-2011 02:50:02 10.4 C 7.61 g/m*3 10.4 C 0 km/h
735 13-01-2011 03:02:02 10.4 C 7.71 g/m*3 10.4 C 0 km/h
736 13-01-2011 03:14:01 10.3 C 7.85 g/m*3 10.3 C 0 km/h
737 13-01-2011 03:26:01 10.3 C 7.85 g/m*3 10.3 C 0 km/h
738 13-01-2011 03:38:02 10.3 C 7.85 g/m*3 10.3 C 0 km/h
739 13-01-2011 03:50:02 10.3 C 7.95 g/m*3 10.3 C 0 km/h
740 13-01-2011 04:02:01 10.5 C 8.05 g/m*3 10.5 C 0 km/h
741 13-01-2011 04:14:01 10.6 C 8.1 g/m*3 10.6 C 0 km/h
742 13-01-2011 04:26:02 10.9 C 8.16 g/m*3 10.9 C 0 km/h
743 13-01-2011 04:38:01 10.7 C 7.96 g/m*3 10.7 C 0 km/h
744 13-01-2011 04:50:02 10.8 C 8.01 g/m*3 10.8 C 0 km/h
745 13-01-2011 05:02:01 11 C 8.01 g/m*3 11 C 0 km/h
746 13-01-2011 05:14:01 11.1 C 8.16 g/m*3 11.1 C 0 km/h
747 13-01-2011 05:26:01 10.7 C 8.05 g/m*3 10.7 C 0 km/h
748 13-01-2011 05:38:02 10.8 C 8.2 g/m*3 10.8 C 0 km/h
749 13-01-2011 05:50:01 10.6 C 8.2 g/m*3 10.6 C 0 km/h
750 13-01-2011 06:02:02 10.7 C 8.25 g/m*3 10.7 C 0 km/h
Sensor: Nr:Datum:Temp:Abs-Feuchte:Windchill:Wind:
Aussen-T/F 751 13-01-2011 06:14:02 10.5 C 8.24 g/m*3 10.5 C 0 km/h
752 13-01-2011 06:26:01 10.6 C 8.3 g/m*3 10.6 C 0 km/h
753 13-01-2011 06:38:02 10.6 C 8.39 g/m*3 10.6 C 0 km/h
754 13-01-2011 06:50:01 10.5 C 8.34 g/m*3 10.5 C 0 km/h
755 13-01-2011 07:02:01 10.6 C 8.39 g/m*3 10.6 C 0 km/h
756 13-01-2011 07:14:02 10.5 C 8.44 g/m*3 10.5 C 0 km/h
757 13-01-2011 07:26:01 10.7 C 8.55 g/m*3 10.7 C 0 km/h
758 13-01-2011 07:38:01 10.7 C 8.45 g/m*3 10.7 C 0 km/h
759 13-01-2011 07:50:01 10.8 C 8.5 g/m*3 10.8 C 0 km/h
760 13-01-2011 08:02:01 10.9 C 8.55 g/m*3 10.9 C 0 km/h
761 13-01-2011 08:14:01 10.8 C 8.5 g/m*3 10.8 C 0 km/h
762 13-01-2011 08:26:02 10.8 C 8.4 g/m*3 10.8 C 0 km/h
763 13-01-2011 08:38:01 10.8 C 8.4 g/m*3 10.8 C 0 km/h
764 13-01-2011 08:50:02 10.9 C 8.45 g/m*3 10.9 C 0 km/h
765 13-01-2011 09:02:01 10.9 C 8.45 g/m*3 10.9 C 0 km/h
766 13-01-2011 09:14:01 11.2 C 8.51 g/m*3 11.2 C 0 km/h
767 13-01-2011 09:26:02 11.4 C 8.52 g/m*3 11.4 C 0 km/h
768 13-01-2011 09:38:01 11.4 C 8.42 g/m*3 11.4 C 0 km/h
769 13-01-2011 09:50:02 11.4 C 8.31 g/m*3 11.4 C 0 km/h
770 13-01-2011 10:02:01 11.5 C 8.37 g/m*3 11.5 C 0 km/h
771 13-01-2011 10:14:01 11.9 C 8.47 g/m*3 11.9 C 0 km/h
772 13-01-2011 10:26:01 11.8 C 8.31 g/m*3 11.8 C 0 km/h
773 13-01-2011 10:38:02 12.2 C 8.2 g/m*3 12.2 C 0 km/h
774 13-01-2011 10:50:01 12.3 C 8.25 g/m*3 12.3 C 0 km/h
775 13-01-2011 11:02:02 12.5 C 8.36 g/m*3 12.5 C 0 km/h
Sensor: Nr:Datum:Temp:Abs-Feuchte:Windchill:Wind:
Aussen-T/F 776 13-01-2011 11:14:02 12.3 C 8.25 g/m*3 12.3 C 0 km/h
777 13-01-2011 11:26:01 12.6 C 8.19 g/m*3 12.6 C 0 km/h
778 13-01-2011 11:38:01 12.5 C 8.25 g/m*3 12.5 C 0 km/h
779 13-01-2011 11:50:01 12.7 C 8.24 g/m*3 12.7 C 0 km/h
780 13-01-2011 12:02:01 12.6 C 8.3 g/m*3 12.6 C 0 km/h
781 13-01-2011 12:14:02 12.5 C 8.25 g/m*3 12.5 C 0 km/h
782 13-01-2011 12:26:01 12.4 C 8.3 g/m*3 12.4 C 0 km/h
783 13-01-2011 12:38:01 12.4 C 8.41 g/m*3 12.4 C 0 km/h
784 13-01-2011 12:50:01 12.4 C 8.3 g/m*3 12.4 C 0 km/h
785 13-01-2011 13:02:01 12.2 C 8.42 g/m*3 12.2 C 0 km/h
786 13-01-2011 13:14:01 12.2 C 8.42 g/m*3 12.2 C 0 km/h
787 13-01-2011 13:26:02 12.7 C 8.46 g/m*3 12.7 C 0 km/h
788 13-01-2011 13:38:01 12.7 C 8.35 g/m*3 12.7 C 0 km/h
789 13-01-2011 13:50:02 12.9 C 8.34 g/m*3 12.9 C 0 km/h
790 13-01-2011 14:02:01 13 C 8.28 g/m*3 13 C 0 km/h
791 13-01-2011 14:14:01 13 C 8.28 g/m*3 13 C 0 km/h
792 13-01-2011 14:26:02 13.2 C 8.27 g/m*3 13.2 C 0 km/h
793 13-01-2011 14:38:01 13.4 C 8.37 g/m*3 13.4 C 0 km/h
794 13-01-2011 14:50:01 13.3 C 8.2 g/m*3 13.3 C 0 km/h
795 13-01-2011 15:02:01 13.1 C 8.22 g/m*3 13.1 C 0 km/h
796 13-01-2011 15:14:01 13.2 C 8.27 g/m*3 13.2 C 0 km/h
797 13-01-2011 15:26:01 13.1 C 8.22 g/m*3 13.1 C 0 km/h
798 13-01-2011 15:38:02 13 C 8.28 g/m*3 13 C 0 km/h
799 13-01-2011 15:50:01 12.9 C 8.34 g/m*3 12.9 C 0 km/h
800 13-01-2011 16:02:02 12.9 C 8.45 g/m*3 12.9 C 0 km/h
Sensor: Nr:Datum:Temp:Abs-Feuchte:Windchill:Wind:
Aussen-T/F 801 13-01-2011 16:14:02 12.9 C 8.45 g/m*3 12.9 C 0 km/h
802 13-01-2011 16:26:01 13 C 8.39 g/m*3 13 C 0 km/h
803 13-01-2011 16:38:01 12.8 C 8.51 g/m*3 12.8 C 0 km/h
804 13-01-2011 16:50:01 12.9 C 8.57 g/m*3 12.9 C 0 km/h
805 13-01-2011 17:02:01 12.8 C 8.51 g/m*3 12.8 C 0 km/h
806 13-01-2011 17:14:02 12.9 C 8.57 g/m*3 12.9 C 0 km/h
807 13-01-2011 17:26:01 12.7 C 8.46 g/m*3 12.7 C 0 km/h
808 13-01-2011 17:38:01 12.9 C 8.57 g/m*3 12.9 C 0 km/h
809 13-01-2011 17:50:01 13 C 8.39 g/m*3 13 C 0 km/h
810 13-01-2011 18:02:01 13 C 8.39 g/m*3 13 C 0 km/h
811 13-01-2011 18:14:01 12.9 C 8.45 g/m*3 12.9 C 0 km/h
812 13-01-2011 18:26:02 12.7 C 8.35 g/m*3 12.7 C 0 km/h
813 13-01-2011 18:38:01 12.8 C 8.51 g/m*3 12.8 C 0 km/h
814 13-01-2011 18:50:02 12.8 C 8.4 g/m*3 12.8 C 0 km/h
815 13-01-2011 19:02:01 12.9 C 8.57 g/m*3 12.9 C 0 km/h
816 13-01-2011 19:14:01 12.8 C 8.51 g/m*3 12.8 C 0 km/h
817 13-01-2011 19:26:02 12.8 C 8.51 g/m*3 12.8 C 0 km/h
818 13-01-2011 19:38:02 12.8 C 8.51 g/m*3 12.8 C 0 km/h
819 13-01-2011 19:50:01 12.8 C 8.4 g/m*3 12.8 C 0 km/h
820 13-01-2011 20:02:02 12.8 C 8.51 g/m*3 12.8 C 0 km/h
821 13-01-2011 20:14:02 12.7 C 8.46 g/m*3 12.7 C 0 km/h
822 13-01-2011 20:26:01 12.6 C 8.52 g/m*3 12.6 C 0 km/h
823 13-01-2011 20:38:01 12.7 C 8.57 g/m*3 12.7 C 0 km/h
824 13-01-2011 20:50:01 12.7 C 8.57 g/m*3 12.7 C 0 km/h
825 13-01-2011 21:02:01 12.7 C 8.46 g/m*3 12.7 C 0 km/h
Sensor: Nr:Datum:Temp:Abs-Feuchte:Windchill:Wind:
Aussen-T/F 826 13-01-2011 21:14:01 12.7 C 8.46 g/m*3 12.7 C 0 km/h
827 13-01-2011 21:26:01 12.8 C 8.51 g/m*3 12.8 C 0 km/h
828 13-01-2011 21:38:01 13 C 8.39 g/m*3 13 C 0 km/h
829 13-01-2011 21:50:01 12.9 C 8.45 g/m*3 12.9 C 0 km/h
830 13-01-2011 22:02:01 12.9 C 8.45 g/m*3 12.9 C 0 km/h
831 13-01-2011 22:14:01 12.8 C 8.4 g/m*3 12.8 C 0 km/h
832 13-01-2011 22:26:01 12.8 C 8.29 g/m*3 12.8 C 0 km/h
833 13-01-2011 22:38:02 12.8 C 8.29 g/m*3 12.8 C 0 km/h
834 13-01-2011 22:50:01 12.8 C 8.29 g/m*3 12.8 C 0 km/h
835 13-01-2011 23:02:02 12.9 C 8.34 g/m*3 12.9 C 0 km/h
836 13-01-2011 23:14:02 12.7 C 8.24 g/m*3 12.7 C 0 km/h
837 13-01-2011 23:26:01 12.7 C 8.24 g/m*3 12.7 C 0 km/h
838 13-01-2011 23:38:02 12.7 C 8.24 g/m*3 12.7 C 0 km/h
839 13-01-2011 23:50:01 12.7 C 8.24 g/m*3 12.7 C 0 km/h

Legende:
   Min
   Max


Maximal/Minimal-Werte vom 07.01.2011 - 13.01.2011

Sensor Min Max Avg
Temp
(Aussen-T/F)
-0.4 °C
11-01-2011  00:49:05
14.7 °C
08-01-2011  14:22:02
6.28 °C
Abs-Feuchte
(Aussen-T/F)
3.82 g/m*3
11-01-2011  00:37:05
8.57 g/m*3
13-01-2011  16:50:01
6.09 g/m*3
Windchill
(Aussen-T/F)
-0.4 C
11-01-2011  00:49:05
14.7 C
08-01-2011  14:22:02
6.28 C

Die Daten stammen von einer Davis Vantage Pro 2 Wetter-Station und werden unter Linux mit der Software wview2wettercgi und aufbereitet. Alle Angaben erfolgen ohne Gewähr für ihre Vollständigkeit oder Richtigkeit.
Kontakt: Rainer Krienke krienke@uni-koblenz.de . Meine Webseiten an der Uni Koblenz oder privat.
Version: $Revision: 0.78 $